Time;durP1;ratioP1;P1;durP2;ratioP2;P2;SDS_P1;SDS_P2;PMS_P1;PMS_P2;Temp;Humidity;BMP_temperature;BMP_pressure;BME280_temperature;BME280_humidity;BME280_pressure;Samples;Min_cycle;Max_cycle;Signal;HPM_P1;HPM_P2
2022/05/27 00:01:52;;;;;;;;;;;;;;;;;;5055777;28;20032;-75
2022/05/27 00:04:18;;;;;;;9.98;1.95;;;;;;;;;;5050972;28;20608;-75
2022/05/27 00:06:44;;;;;;;;;;;;;;;;;;5065916;28;20052;-76
2022/05/27 00:09:10;;;;;;;5.97;1.55;;;;;;;;;;5064316;28;20047;-76
2022/05/27 00:11:37;;;;;;;5.30;1.33;;;;;;;;;;5063868;28;20794;-75
2022/05/27 00:14:03;;;;;;;;;;;;;;;;;;5052942;28;20139;-76
2022/05/27 00:16:29;;;;;;;6.65;1.40;;;;;;;;;;5068445;28;19911;-76
2022/05/27 00:18:55;;;;;;;8.20;1.70;;;;;;;;;;5070116;28;20032;-75
2022/05/27 00:21:22;;;;;;;7.22;1.77;;;;;;;;;;5063210;28;20427;-75
2022/05/27 00:23:49;;;;;;;7.75;1.38;;;;;;;;;;5052252;28;20039;-75
2022/05/27 00:26:15;;;;;;;5.82;1.40;;;;;;;;;;5059341;28;20039;-76
2022/05/27 00:28:41;;;;;;;;;;;;;;;;;;5069013;28;20089;-76
2022/05/27 00:31:07;;;;;;;3.58;1.02;;;;;;;;;;5066052;28;19912;-76
2022/05/27 00:33:34;;;;;;;4.68;1.13;;;;;;;;;;5068113;28;20108;-76
2022/05/27 00:36:10;;;;;;;2.90;0.95;;;;;;;;;;5070320;28;20111;-76
2022/05/27 00:38:37;;;;;;;4.77;1.10;;;;;;;;;;5071731;28;20028;-76
2022/05/27 00:41:04;;;;;;;4.97;1.00;;;;;;;;;;5068157;28;20068;-76
2022/05/27 00:43:30;;;;;;;2.47;0.80;;;;;;;;;;5054331;28;20135;-76
2022/05/27 00:45:56;;;;;;;;;;;;;;;;;;5074370;28;20028;-76
2022/05/27 00:48:22;;;;;;;2.55;0.80;;;;;;;;;;5066525;28;20269;-76
2022/05/27 00:50:49;;;;;;;2.85;0.80;;;;;;;;;;5056674;28;20035;-76
2022/05/27 00:53:20;;;;;;;6.30;1.10;;;;;;;;;;5051793;28;20116;-77
2022/05/27 00:55:48;;;;;;;4.72;1.13;;;;;;;;;;5054987;28;20028;-76
2022/05/27 00:58:34;;;;;;;5.45;1.63;;;;;;;;;;5073136;28;20096;-76
2022/05/27 01:01:01;;;;;;;6.47;1.33;;;;;;;;;;5054515;28;20069;-76
2022/05/27 01:03:28;;;;;;;3.50;1.15;;;;;;;;;;5078778;28;20264;-76
2022/05/27 01:05:54;;;;;;;6.60;1.10;;;;;;;;;;5072257;28;20043;-76
2022/05/27 01:08:20;;;;;;;;;;;;;;;;;;5065098;28;20111;-75
2022/05/27 01:11:00;;;;;;;6.63;1.33;;;;;;;;;;5071540;28;19994;-76
2022/05/27 01:13:38;;;;;;;5.65;1.55;;;;;;;;;;5065251;28;20051;-77
2022/05/27 01:16:28;;;;;;;6.68;1.30;;;;;;;;;;5068786;28;20028;-77
2022/05/27 01:21:50;;;;;;;7.43;1.65;;;;;;;;;;5072237;28;20035;-76
2022/05/27 01:24:37;;;;;;;6.22;1.52;;;;;;;;;;5057989;28;20036;-76
2022/05/27 01:27:35;;;;;;;3.50;1.10;;;;;;;;;;5021471;28;20490;-75
2022/05/27 01:30:01;;;;;;;6.35;1.10;;;;;;;;;;5004022;28;21052;-75
2022/05/27 01:32:28;;;;;;;;;;;;;;;;;;5004112;28;20044;-75
2022/05/27 01:34:55;;;;;;;;;;;;;;;;;;5008206;28;20911;-75
2022/05/27 01:37:27;;;;;;;4.70;1.10;;;;;;;;;;5004845;28;19991;-76
2022/05/27 01:40:17;;;;;;;4.72;1.05;;;;;;;;;;4991072;28;20037;-75
2022/05/27 01:42:47;;;;;;;4.53;1.00;;;;;;;;;;5004728;28;20041;-77
2022/05/27 01:45:17;;;;;;;5.15;1.05;;;;;;;;;;5002413;28;20480;-76
2022/05/27 01:47:46;;;;;;;3.55;0.90;;;;;;;;;;5003667;28;20614;-75
2022/05/27 01:50:19;;;;;;;3.45;0.98;;;;;;;;;;5001642;28;20075;-75
2022/05/27 01:52:53;;;;;;;2.72;0.80;;;;;;;;;;5002940;28;20041;-77
2022/05/27 01:55:27;;;;;;;5.85;1.20;;;;;;;;;;4987452;28;20029;-77
2022/05/27 01:57:58;;;;;;;4.43;1.08;;;;;;;;;;5005779;28;20495;-77
2022/05/27 02:00:26;;;;;;;4.75;1.10;;;;;;;;;;4985270;28;20118;-77
2022/05/27 02:02:55;;;;;;;5.82;1.02;;;;;;;;;;5006887;28;20072;-77
2022/05/27 02:05:26;;;;;;;5.13;0.93;;;;;;;;;;5021288;28;20236;-77
2022/05/27 02:07:57;;;;;;;5.20;1.10;;;;;;;;;;5073339;28;20517;-77
2022/05/27 02:10:29;;;;;;;3.78;1.00;;;;;;;;;;5066624;28;20044;-78
2022/05/27 02:13:01;;;;;;;4.43;1.20;;;;;;;;;;5055682;28;20498;-77
2022/05/27 02:15:30;;;;;;;3.35;0.90;;;;;;;;;;5068486;28;20032;-77
2022/05/27 02:18:03;;;;;;;2.58;0.90;;;;;;;;;;5070907;28;20059;-77
2022/05/27 02:20:33;;;;;;;4.68;0.80;;;;;;;;;;5070224;28;20043;-78
2022/05/27 02:23:01;;;;;;;4.15;0.93;;;;;;;;;;5069913;28;20028;-77
2022/05/27 02:25:29;;;;;;;6.30;1.00;;;;;;;;;;5068706;28;20426;-76
2022/05/27 02:28:04;;;;;;;6.03;1.00;;;;;;;;;;5070144;28;20058;-76
2022/05/27 02:30:31;;;;;;;4.40;1.10;;;;;;;;;;5051550;28;20048;-77
2022/05/27 02:35:47;;;;;;;5.43;0.85;;;;;;;;;;5064721;28;20077;-77
2022/05/27 02:38:13;;;;;;;5.07;1.05;;;;;;;;;;5064423;28;20047;-77
2022/05/27 02:40:58;;;;;;;5.40;1.30;;;;;;;;;;5057078;28;20630;-77
2022/05/27 02:43:34;;;;;;;4.63;1.00;;;;;;;;;;5069557;28;20639;-77
2022/05/27 02:46:07;;;;;;;3.70;0.90;;;;;;;;;;5066970;28;20075;-77
2022/05/27 02:48:51;;;;;;;3.53;0.90;;;;;;;;;;5065157;28;20074;-77
2022/05/27 02:51:22;;;;;;;5.25;1.00;;;;;;;;;;5072007;28;20032;-77
2022/05/27 02:53:58;;;;;;;6.63;1.10;;;;;;;;;;5070645;28;20027;-77
2022/05/27 02:56:30;;;;;;;4.97;0.88;;;;;;;;;;5046411;28;20036;-77
2022/05/27 02:58:56;;;;;;;3.97;0.82;;;;;;;;;;5067537;28;20028;-77
2022/05/27 03:01:22;;;;;;;;;;;;;;;;;;5043962;28;20367;-77
2022/05/27 03:03:48;;;;;;;3.95;1.02;;;;;;;;;;5069819;28;19912;-77
2022/05/27 03:06:23;;;;;;;3.47;0.90;;;;;;;;;;5064548;28;20629;-77
2022/05/27 03:08:56;;;;;;;5.25;0.95;;;;;;;;;;5068376;28;20146;-75
2022/05/27 03:11:45;;;;;;;3.90;1.08;;;;;;;;;;5049382;28;20032;-75
2022/05/27 03:14:29;;;;;;;6.90;0.90;;;;;;;;;;5008927;28;20091;-75
2022/05/27 03:16:58;;;;;;;5.35;1.20;;;;;;;;;;5041032;28;20329;-77
2022/05/27 03:19:40;;;;;;;5.93;1.00;;;;;;;;;;5037955;28;21407;-75
2022/05/27 03:22:12;;;;;;;3.38;0.90;;;;;;;;;;5022480;28;20044;-75
2022/05/27 03:24:46;;;;;;;4.78;0.90;;;;;;;;;;5039109;28;20886;-76
2022/05/27 03:27:23;;;;;;;5.82;1.00;;;;;;;;;;5031875;28;20028;-78
2022/05/27 03:29:56;;;;;;;4.07;0.93;;;;;;;;;;5037125;28;20033;-78
2022/05/27 03:32:36;;;;;;;3.28;0.98;;;;;;;;;;5031033;28;20136;-76
2022/05/27 03:35:18;;;;;;;3.67;1.00;;;;;;;;;;5032123;28;20405;-76
2022/05/27 03:38:01;;;;;;;4.22;0.90;;;;;;;;;;5044460;28;20028;-76
2022/05/27 03:40:33;;;;;;;2.88;0.80;;;;;;;;;;5029104;28;20141;-75
2022/05/27 03:43:01;;;;;;;3.55;0.80;;;;;;;;;;5045985;28;20035;-75
2022/05/27 03:45:28;;;;;;;2.95;0.80;;;;;;;;;;5048700;28;20035;-76
2022/05/27 03:47:54;;;;;;;4.40;1.00;;;;;;;;;;5047706;28;20128;-76
2022/05/27 03:50:20;;;;;;;;;;;;;;;;;;5046651;28;20109;-76
2022/05/27 03:52:47;;;;;;;5.32;1.10;;;;;;;;;;5032836;28;20641;-76
2022/05/27 03:55:16;;;;;;;5.57;0.98;;;;;;;;;;5025041;28;20037;-75
2022/05/27 03:57:42;;;;;;;3.15;1.10;;;;;;;;;;5030515;28;20032;-76
2022/05/27 04:00:08;;;;;;;;;;;;;;;;;;5027794;28;20106;-76
2022/05/27 04:02:36;;;;;;;2.85;0.73;;;;;;;;;;5049876;28;20386;-75
2022/05/27 04:05:02;;;;;;;7.70;1.20;;;;;;;;;;5030893;28;20032;-75
2022/05/27 04:07:28;;;;;;;3.35;0.90;;;;;;;;;;5044539;28;20032;-76
2022/05/27 04:09:54;;;;;;;;;;;;;;;;;;5042344;28;20117;-77
2022/05/27 04:12:21;;;;;;;3.13;0.80;;;;;;;;;;5034356;28;20196;-78
2022/05/27 04:14:53;;;;;;;3.08;0.93;;;;;;;;;;5070040;28;20382;-76
2022/05/27 04:17:32;;;;;;;3.50;0.80;;;;;;;;;;5055764;28;20155;-76
2022/05/27 04:20:04;;;;;;;4.38;0.95;;;;;;;;;;5069498;28;20110;-78
2022/05/27 04:22:30;;;;;;;5.95;1.20;;;;;;;;;;5052391;28;20031;-78
2022/05/27 04:24:58;;;;;;;;;;;;;;;;;;5071925;28;20075;-76
2022/05/27 04:27:25;;;;;;;3.83;1.05;;;;;;;;;;5053813;28;19952;-76
2022/05/27 04:29:52;;;;;;;6.53;1.30;;;;;;;;;;5058208;28;20032;-78
2022/05/27 04:32:18;;;;;;;5.43;1.15;;;;;;;;;;5065255;28;20042;-79
2022/05/27 04:34:44;;;;;;;6.10;1.30;;;;;;;;;;5053709;28;20039;-79
2022/05/27 04:37:11;;;;;;;4.78;0.90;;;;;;;;;;5063228;28;20035;-78
2022/05/27 04:39:38;;;;;;;4.07;0.90;;;;;;;;;;5069227;28;20056;-78
2022/05/27 04:42:05;;;;;;;3.90;1.00;;;;;;;;;;5068697;28;20044;-79
2022/05/27 04:44:33;;;;;;;6.88;1.30;;;;;;;;;;5055235;28;20447;-78
2022/05/27 04:46:59;;;;;;;3.10;0.88;;;;;;;;;;5054719;28;20043;-77
2022/05/27 04:52:10;;;;;;;4.90;1.10;;;;;;;;;;5061973;28;20120;-76
2022/05/27 04:54:36;;;;;;;;;;;;;;;;;;5069681;28;20020;-78
2022/05/27 04:57:02;;;;;;;5.57;1.30;;;;;;;;;;5057545;28;20113;-79
2022/05/27 04:59:29;;;;;;;6.90;1.10;;;;;;;;;;5067714;28;20084;-78
2022/05/27 05:01:55;;;;;;;5.15;1.02;;;;;;;;;;5073565;28;20031;-78
2022/05/27 05:04:21;;;;;;;;;;;;;;;;;;5067960;28;20047;-75
2022/05/27 05:06:47;;;;;;;3.05;0.98;;;;;;;;;;5068040;28;20306;-75
2022/05/27 05:09:13;;;;;;;5.65;1.13;;;;;;;;;;5070401;28;20101;-77
2022/05/27 05:11:39;;;;;;;;;;;;;;;;;;5072134;28;20036;-77
2022/05/27 05:14:05;;;;;;;7.43;1.35;;;;;;;;;;5066788;28;19916;-77
2022/05/27 05:16:31;;;;;;;6.15;1.17;;;;;;;;;;5069204;28;20020;-77
2022/05/27 05:18:58;;;;;;;;;;;;;;;;;;5068912;28;20060;-77
2022/05/27 05:21:24;;;;;;;4.05;1.13;;;;;;;;;;5045052;28;20509;-75
2022/05/27 05:23:50;;;;;;;;;;;;;;;;;;5056982;28;20027;-76
2022/05/27 05:26:16;;;;;;;5.72;1.73;;;;;;;;;;5065690;28;19964;-76
2022/05/27 05:28:42;;;;;;;5.95;1.30;;;;;;;;;;5072554;28;20049;-76
2022/05/27 05:31:11;;;;;;;;;;;;;;;;;;5069638;28;20036;-76
2022/05/27 05:33:37;;;;;;;5.28;0.80;;;;;;;;;;5064310;28;19912;-77
2022/05/27 05:36:04;;;;;;;6.35;1.00;;;;;;;;;;5051637;28;20730;-77
2022/05/27 05:38:30;;;;;;;5.15;1.05;;;;;;;;;;5070762;28;20028;-76
2022/05/27 05:40:56;;;;;;;;;;;;;;;;;;5058712;28;20025;-76
2022/05/27 05:43:22;;;;;;;5.18;0.80;;;;;;;;;;5070028;28;20009;-76
2022/05/27 05:45:48;;;;;;;4.70;1.25;;;;;;;;;;5063836;28;20365;-76
2022/05/27 05:48:14;;;;;;;;;;;;;;;;;;5055234;28;20418;-76
2022/05/27 05:50:40;;;;;;;5.30;1.35;;;;;;;;;;5071514;28;19915;-76
2022/05/27 05:53:07;;;;;;;7.50;1.10;;;;;;;;;;5065377;28;20028;-76
2022/05/27 05:55:35;;;;;;;7.30;2.10;;;;;;;;;;5070334;28;20038;-76
2022/05/27 05:58:02;;;;;;;4.63;1.48;;;;;;;;;;5074051;28;20038;-76
2022/05/27 06:00:29;;;;;;;5.28;1.30;;;;;;;;;;5066152;28;20077;-76
2022/05/27 06:02:55;;;;;;;8.65;1.42;;;;;;;;;;5070656;28;20449;-76
2022/05/27 06:05:23;;;;;;;10.38;1.77;;;;;;;;;;5049094;28;20032;-77
2022/05/27 06:07:50;;;;;;;8.30;1.58;;;;;;;;;;5068975;28;20036;-77
2022/05/27 06:10:17;;;;;;;9.48;1.65;;;;;;;;;;5066134;28;20032;-76
2022/05/27 06:12:43;;;;;;;8.13;1.55;;;;;;;;;;5072414;28;20043;-76
2022/05/27 06:15:12;;;;;;;7.70;1.38;;;;;;;;;;5067573;28;20123;-76
2022/05/27 06:17:38;;;;;;;6.05;1.33;;;;;;;;;;5058380;28;20027;-76
2022/05/27 06:20:05;;;;;;;5.25;1.00;;;;;;;;;;5066950;28;20028;-80
2022/05/27 06:22:32;;;;;;;5.20;1.02;;;;;;;;;;5073913;28;20496;-79
2022/05/27 06:24:58;;;;;;;5.97;1.40;;;;;;;;;;5053730;28;20036;-79
2022/05/27 06:27:25;;;;;;;5.55;1.45;;;;;;;;;;5066869;28;21418;-76
2022/05/27 06:35:20;;;;;;;5.68;1.35;;;;;;;;;;5067863;28;20101;-77
2022/05/27 06:37:48;;;;;;;5.60;1.35;;;;;;;;;;5051477;28;20501;-76
2022/05/27 06:40:14;;;;;;;6.55;1.23;;;;;;;;;;5064567;28;20425;-77
2022/05/27 06:42:41;;;;;;;8.85;1.40;;;;;;;;;;5069139;28;20036;-79
2022/05/27 06:45:08;;;;;;;12.73;2.47;;;;;;;;;;5065896;28;20070;-79
2022/05/27 06:47:35;;;;;;;7.72;2.85;;;;;;;;;;5066898;28;20065;-79
2022/05/27 06:50:01;;;;;;;11.15;2.78;;;;;;;;;;5069853;28;20128;-78
2022/05/27 06:52:27;;;;;;;;;;;;;;;;;;5066029;28;20127;-76
2022/05/27 06:54:54;;;;;;;9.45;2.30;;;;;;;;;;5068615;28;19912;-76
2022/05/27 06:57:20;;;;;;;8.90;2.17;;;;;;;;;;5066734;28;20411;-76
2022/05/27 06:59:46;;;;;;;8.63;2.25;;;;;;;;;;5071952;28;20118;-76
2022/05/27 07:02:12;;;;;;;;;;;;;;;;;;5070227;28;20382;-76
2022/05/27 07:04:38;;;;;;;8.63;1.88;;;;;;;;;;5072643;28;19912;-77
2022/05/27 07:07:05;;;;;;;6.93;1.60;;;;;;;;;;5050403;28;20089;-76
2022/05/27 07:09:35;;;;;;;10.93;1.70;;;;;;;;;;5071567;28;20059;-75
2022/05/27 07:12:02;;;;;;;7.32;1.48;;;;;;;;;;5048030;28;20040;-76
2022/05/27 07:14:28;;;;;;;5.63;1.40;;;;;;;;;;5047876;28;20477;-78
2022/05/27 07:16:54;;;;;;;;;;;;;;;;;;5071273;28;20028;-78
2022/05/27 07:19:20;;;;;;;6.00;1.50;;;;;;;;;;5066994;28;20234;-77
2022/05/27 07:21:47;;;;;;;8.52;1.80;;;;;;;;;;5068662;28;20035;-75
2022/05/27 07:24:14;;;;;;;7.22;1.70;;;;;;;;;;5067390;28;20088;-75
2022/05/27 07:26:41;;;;;;;5.75;1.42;;;;;;;;;;5070700;28;20039;-75
2022/05/27 07:29:08;;;;;;;6.15;1.40;;;;;;;;;;5066425;28;20368;-75
2022/05/27 07:31:36;;;;;;;7.55;1.55;;;;;;;;;;5070446;28;20363;-75
2022/05/27 07:34:02;;;;;;;7.60;1.50;;;;;;;;;;5071196;28;20446;-79
2022/05/27 07:36:28;;;;;;;6.47;1.40;;;;;;;;;;5067979;28;20105;-76
2022/05/27 07:38:54;;;;;;;6.95;1.30;;;;;;;;;;5070605;28;20034;-78
2022/05/27 07:41:21;;;;;;;7.32;1.63;;;;;;;;;;5065562;28;20063;-76
2022/05/27 07:43:48;;;;;;;8.35;1.80;;;;;;;;;;5063841;28;20036;-79
2022/05/27 07:46:15;;;;;;;5.55;1.40;;;;;;;;;;5064698;28;20032;-76
2022/05/27 07:48:42;;;;;;;7.03;1.90;;;;;;;;;;5054169;28;20028;-75
2022/05/27 07:51:08;;;;;;;7.80;1.83;;;;;;;;;;5068743;28;20047;-76
2022/05/27 07:53:35;;;;;;;6.50;1.50;;;;;;;;;;5051460;28;20024;-76
2022/05/27 07:56:06;;;;;;;7.40;1.58;;;;;;;;;;5050908;28;20055;-76
2022/05/27 07:58:32;;;;;;;6.43;1.35;;;;;;;;;;5073385;28;20714;-76
2022/05/27 08:00:58;;;;;;;8.55;1.50;;;;;;;;;;5069541;28;20127;-78
2022/05/27 08:03:24;;;;;;;;;;;;;;;;;;5067465;28;20078;-76
2022/05/27 08:05:50;;;;;;;10.07;2.10;;;;;;;;;;5071782;28;19915;-76
2022/05/27 08:08:18;;;;;;;8.82;1.70;;;;;;;;;;5052085;28;20510;-76
2022/05/27 08:10:44;;;;;;;7.47;1.60;;;;;;;;;;5051470;28;20170;-76
2022/05/27 08:13:11;;;;;;;5.15;1.15;;;;;;;;;;5047860;28;20477;-76
2022/05/27 08:15:37;;;;;;;8.80;1.50;;;;;;;;;;5071148;28;20453;-76
2022/05/27 08:18:04;;;;;;;9.40;1.77;;;;;;;;;;5052668;28;20134;-76
2022/05/27 08:20:31;;;;;;;7.03;1.50;;;;;;;;;;5053896;28;20114;-76
2022/05/27 08:22:58;;;;;;;11.57;1.90;;;;;;;;;;5050005;28;20036;-76
2022/05/27 08:25:25;;;;;;;9.88;1.70;;;;;;;;;;5049920;28;20425;-78
2022/05/27 08:27:52;;;;;;;7.20;1.50;;;;;;;;;;5071826;28;20061;-77
2022/05/27 08:30:21;;;;;;;10.50;2.03;;;;;;;;;;5048321;28;20042;-77
2022/05/27 08:32:48;;;;;;;9.77;1.80;;;;;;;;;;5049311;28;20132;-77
2022/05/27 08:38:01;;;;;;;9.93;1.70;;;;;;;;;;5065969;28;20070;-76
2022/05/27 08:40:45;;;;;;;7.05;1.50;;;;;;;;;;5066308;28;20130;-76
2022/05/27 08:43:30;;;;;;;5.18;1.40;;;;;;;;;;5065633;28;20486;-77
2022/05/27 08:46:17;;;;;;;8.73;1.50;;;;;;;;;;5067317;28;20060;-77
2022/05/27 08:48:45;;;;;;;11.00;4.55;;;;;;;;;;5070118;28;20019;-76
2022/05/27 08:51:19;;;;;;;14.13;5.82;;;;;;;;;;5046285;28;20356;-76
2022/05/27 08:53:48;;;;;;;8.45;3.15;;;;;;;;;;5071520;28;20458;-76
2022/05/27 08:59:37;;;;;;;8.02;2.00;;;;;;;;;;5068873;28;20447;-75
2022/05/27 09:02:03;;;;;;;7.95;2.30;;;;;;;;;;5055469;28;20024;-74
2022/05/27 09:04:33;;;;;;;10.95;2.28;;;;;;;;;;5073260;28;20028;-74
2022/05/27 09:07:19;;;;;;;8.95;2.30;;;;;;;;;;5070629;28;20737;-74
2022/05/27 09:09:45;;;;;;;9.70;2.58;;;;;;;;;;5029132;28;20063;-74
2022/05/27 09:12:30;;;;;;;8.70;2.65;;;;;;;;;;5074419;28;20887;-74
2022/05/27 09:15:02;;;;;;;8.13;1.70;;;;;;;;;;5054351;28;20024;-74
2022/05/27 09:17:51;;;;;;;9.65;2.33;;;;;;;;;;5068990;28;20021;-74
2022/05/27 09:20:24;;;;;;;7.32;1.80;;;;;;;;;;4940016;28;20046;-76
2022/05/27 09:23:09;;;;;;;6.45;1.42;;;;;;;;;;4966415;28;20473;-76
2022/05/27 09:25:41;;;;;;;9.63;1.70;;;;;;;;;;4963268;28;20046;-76
2022/05/27 09:28:07;;;;;;;12.82;2.25;;;;;;;;;;4960278;28;20089;-75
2022/05/27 09:30:35;;;;;;;10.13;2.00;;;;;;;;;;4962273;28;20043;-76
2022/05/27 09:33:04;;;;;;;12.20;2.30;;;;;;;;;;4967337;28;20030;-75
2022/05/27 09:35:33;;;;;;;8.32;1.77;;;;;;;;;;4952876;28;20035;-75
2022/05/27 09:38:01;;;;;;;5.43;1.70;;;;;;;;;;4967201;28;20039;-75
2022/05/27 09:40:43;;;;;;;7.20;1.77;;;;;;;;;;4970896;28;20033;-75
2022/05/27 09:43:13;;;;;;;6.90;1.48;;;;;;;;;;4960605;28;20540;-75
2022/05/27 09:45:40;;;;;;;8.52;1.63;;;;;;;;;;4970551;28;20117;-76
2022/05/27 09:48:07;;;;;;;8.13;2.17;;;;;;;;;;4969016;28;20039;-74
2022/05/27 09:50:45;;;;;;;6.53;1.73;;;;;;;;;;4973846;28;20103;-74
2022/05/27 09:53:13;;;;;;;9.43;1.67;;;;;;;;;;4967468;28;20041;-74
2022/05/27 09:55:41;;;;;;;7.13;1.60;;;;;;;;;;4974578;28;20081;-75
2022/05/27 09:58:08;;;;;;;11.75;1.67;;;;;;;;;;5042677;28;20036;-75
2022/05/27 10:00:34;;;;;;;19.65;2.10;;;;;;;;;;5053344;28;20484;-75
2022/05/27 10:03:00;;;;;;;6.82;1.33;;;;;;;;;;5072899;28;20039;-75
2022/05/27 10:05:28;;;;;;;9.02;1.60;;;;;;;;;;5069439;28;20042;-75
2022/05/27 10:07:57;;;;;;;8.38;1.77;;;;;;;;;;5072366;28;20028;-75
2022/05/27 10:10:34;;;;;;;6.63;1.40;;;;;;;;;;5067985;28;20177;-75
2022/05/27 10:13:34;;;;;;;8.60;1.50;;;;;;;;;;5054376;28;20635;-75
2022/05/27 10:16:08;;;;;;;9.70;1.70;;;;;;;;;;5069490;28;20028;-75
2022/05/27 10:18:34;;;;;;;6.93;1.50;;;;;;;;;;5054463;28;20020;-74
2022/05/27 10:21:01;;;;;;;10.43;1.95;;;;;;;;;;5053296;28;20020;-75
2022/05/27 10:23:29;;;;;;;6.53;2.00;;;;;;;;;;5069239;28;20024;-75
2022/05/27 10:25:55;;;;;;;10.25;2.30;;;;;;;;;;5072745;28;20526;-75
2022/05/27 10:28:25;;;;;;;10.55;2.17;;;;;;;;;;5069568;28;20070;-75
2022/05/27 10:30:52;;;;;;;8.00;1.77;;;;;;;;;;5064307;28;20036;-75
2022/05/27 10:33:23;;;;;;;10.85;1.70;;;;;;;;;;5068199;28;20024;-75
2022/05/27 10:35:53;;;;;;;7.10;1.60;;;;;;;;;;5053828;28;20064;-75
2022/05/27 10:38:23;;;;;;;6.35;1.38;;;;;;;;;;5064515;28;20032;-75
2022/05/27 10:41:19;;;;;;;7.40;1.40;;;;;;;;;;5054249;28;20027;-75
2022/05/27 10:43:54;;;;;;;8.20;1.65;;;;;;;;;;5050224;28;20147;-74
2022/05/27 10:46:22;;;;;;;7.37;1.80;;;;;;;;;;5048982;28;20044;-75
2022/05/27 10:48:55;;;;;;;9.43;1.90;;;;;;;;;;5048699;28;20390;-75
2022/05/27 10:51:21;;;;;;;7.90;1.50;;;;;;;;;;5074639;28;20169;-74
2022/05/27 10:53:56;;;;;;;7.05;1.55;;;;;;;;;;5055738;28;20107;-74
2022/05/27 10:56:28;;;;;;;6.97;1.58;;;;;;;;;;5069663;28;20250;-74
2022/05/27 11:02:06;;;;;;;5.90;1.50;;;;;;;;;;5071467;28;20082;-75
2022/05/27 11:04:51;;;;;;;7.68;1.52;;;;;;;;;;5054099;28;20034;-75
2022/05/27 11:07:40;;;;;;;7.97;1.65;;;;;;;;;;5061339;28;20078;-75
2022/05/27 11:10:23;;;;;;;6.70;1.52;;;;;;;;;;5056685;28;20379;-75
2022/05/27 11:15:59;;;;;;;9.38;1.63;;;;;;;;;;5072081;28;20103;-74
2022/05/27 11:18:39;;;;;;;6.75;1.60;;;;;;;;;;5051831;28;20028;-76
2022/05/27 11:21:16;;;;;;;10.15;1.80;;;;;;;;;;5067627;28;20032;-74
2022/05/27 11:24:24;;;;;;;8.80;1.55;;;;;;;;;;5072642;28;20452;-74
2022/05/27 11:27:09;;;;;;;10.75;1.70;;;;;;;;;;5003215;28;20041;-76
2022/05/27 11:29:50;;;;;;;8.45;1.98;;;;;;;;;;5006208;28;20045;-74
2022/05/27 11:32:19;;;;;;;5.85;1.58;;;;;;;;;;5000449;28;20057;-74
2022/05/27 11:35:01;;;;;;;9.30;1.70;;;;;;;;;;5001644;28;20842;-74
2022/05/27 11:37:47;;;;;;;9.65;1.98;;;;;;;;;;4999914;28;20033;-74
2022/05/27 11:40:13;;;;;;;10.63;1.80;;;;;;;;;;5001193;28;20083;-75
2022/05/27 11:42:52;;;;;;;7.40;1.85;;;;;;;;;;5002709;28;20037;-75
2022/05/27 11:45:20;;;;;;;7.18;1.80;;;;;;;;;;5002388;28;20041;-74
2022/05/27 11:47:50;;;;;;;8.00;1.80;;;;;;;;;;5001875;28;20064;-74
2022/05/27 11:50:19;;;;;;;7.47;1.50;;;;;;;;;;4992228;28;20451;-74
2022/05/27 11:52:45;;;;;;;7.10;1.67;;;;;;;;;;5003813;28;20152;-74
2022/05/27 11:55:14;;;;;;;6.18;1.55;;;;;;;;;;4983157;28;20200;-74
2022/05/27 11:57:52;;;;;;;5.90;1.48;;;;;;;;;;4999677;28;20041;-74
2022/05/27 12:00:22;;;;;;;6.15;1.50;;;;;;;;;;5009378;28;20489;-75
2022/05/27 12:02:58;;;;;;;6.82;1.30;;;;;;;;;;5066479;28;20044;-75
2022/05/27 12:05:27;;;;;;;5.90;1.40;;;;;;;;;;5052336;28;22513;-74
2022/05/27 12:08:02;;;;;;;6.50;1.50;;;;;;;;;;5067648;28;20455;-75
2022/05/27 12:10:45;;;;;;;6.20;1.38;;;;;;;;;;5066735;28;20457;-75
2022/05/27 12:13:19;;;;;;;8.95;1.58;;;;;;;;;;5066501;28;20036;-75
2022/05/27 12:15:54;;;;;;;7.88;1.40;;;;;;;;;;5067846;28;20020;-75
2022/05/27 12:18:24;;;;;;;13.60;1.75;;;;;;;;;;5065230;28;20024;-75
2022/05/27 12:20:51;;;;;;;5.30;1.20;;;;;;;;;;5054697;28;20420;-75
2022/05/27 12:23:19;;;;;;;8.93;1.48;;;;;;;;;;5063026;28;20032;-77
2022/05/27 12:25:48;;;;;;;7.93;1.60;;;;;;;;;;5068838;28;20027;-75
2022/05/27 12:28:19;;;;;;;6.63;1.80;;;;;;;;;;5049204;28;20717;-75
2022/05/27 12:30:46;;;;;;;7.90;1.67;;;;;;;;;;5049391;28;20035;-75
2022/05/27 12:33:16;;;;;;;4.78;1.42;;;;;;;;;;5047350;28;20454;-75
2022/05/27 12:35:47;;;;;;;6.80;1.38;;;;;;;;;;5067555;28;20462;-77
2022/05/27 12:38:22;;;;;;;8.40;1.50;;;;;;;;;;5064487;28;20025;-75
2022/05/27 12:40:48;;;;;;;;;;;;;;;;;;5068368;28;20035;-77
2022/05/27 12:43:14;;;;;;;;;;;;;;;;;;5067403;28;19916;-76
2022/05/27 12:45:40;;;;;;;;;;;;;;;;;;5068502;28;19912;-77
2022/05/27 12:48:07;;;;;;;7.43;1.60;;;;;;;;;;5066469;28;19923;-75
2022/05/27 12:50:36;;;;;;;7.05;1.20;;;;;;;;;;5066399;28;20024;-75
2022/05/27 12:53:19;;;;;;;4.82;1.30;;;;;;;;;;5068676;28;20344;-75
2022/05/27 13:01:22;;;;;;;6.63;1.25;;;;;;;;;;5064321;28;20551;-74
2022/05/27 13:03:50;;;;;;;9.73;1.65;;;;;;;;;;5069212;28;20055;-74
2022/05/27 13:06:19;;;;;;;11.65;2.03;;;;;;;;;;5047053;28;20028;-77
2022/05/27 13:08:52;;;;;;;9.35;1.60;;;;;;;;;;5047705;28;20032;-77
2022/05/27 13:11:26;;;;;;;8.38;1.70;;;;;;;;;;5046484;28;20492;-75
2022/05/27 13:14:15;;;;;;;11.85;1.95;;;;;;;;;;5067706;28;20040;-75
2022/05/27 13:16:44;;;;;;;16.35;2.22;;;;;;;;;;5057669;28;20086;-75
2022/05/27 13:19:44;;;;;;;16.05;2.28;;;;;;;;;;5049780;28;20119;-77
2022/05/27 13:22:14;;;;;;;13.55;2.13;;;;;;;;;;5047905;28;20033;-75
2022/05/27 13:24:46;;;;;;;9.88;1.80;;;;;;;;;;5050901;28;20103;-75
2022/05/27 13:27:16;;;;;;;6.88;1.35;;;;;;;;;;5067510;28;20507;-75
2022/05/27 13:29:42;;;;;;;6.32;1.55;;;;;;;;;;5067873;28;20542;-77
2022/05/27 13:32:11;;;;;;;9.90;1.77;;;;;;;;;;5048137;28;20350;-75
2022/05/27 13:34:44;;;;;;;11.50;2.00;;;;;;;;;;5050398;28;20040;-75
2022/05/27 13:37:22;;;;;;;6.88;1.50;;;;;;;;;;5050627;28;20064;-75
2022/05/27 13:39:54;;;;;;;6.57;1.50;;;;;;;;;;5070198;28;20407;-75
2022/05/27 13:42:28;;;;;;;6.25;1.42;;;;;;;;;;5068340;28;20038;-75
2022/05/27 13:44:55;;;;;;;7.55;1.60;;;;;;;;;;5056286;28;20481;-76
2022/05/27 13:47:24;;;;;;;8.00;1.67;;;;;;;;;;5071232;28;20655;-76
2022/05/27 13:49:50;;;;;;;8.57;1.83;;;;;;;;;;5060744;28;20031;-76
2022/05/27 13:52:19;;;;;;;10.00;1.70;;;;;;;;;;5075512;28;20024;-75
2022/05/27 13:54:45;;;;;;;6.55;1.40;;;;;;;;;;5070323;28;20127;-75
2022/05/27 13:57:14;;;;;;;6.47;1.25;;;;;;;;;;5050120;28;20024;-76
2022/05/27 13:59:42;;;;;;;6.93;1.67;;;;;;;;;;5054138;28;20147;-76
2022/05/27 14:02:14;;;;;;;8.93;1.35;;;;;;;;;;5054445;28;20039;-76
2022/05/27 14:04:45;;;;;;;8.27;1.50;;;;;;;;;;5075122;28;20028;-77
2022/05/27 14:07:21;;;;;;;6.85;1.40;;;;;;;;;;5068767;28;20036;-75
2022/05/27 14:09:48;;;;;;;6.82;1.50;;;;;;;;;;5070564;28;20391;-75
2022/05/27 14:12:18;;;;;;;6.68;1.58;;;;;;;;;;5069577;28;20830;-75
2022/05/27 14:14:46;;;;;;;7.00;1.38;;;;;;;;;;5064904;28;20032;-75
2022/05/27 14:17:16;;;;;;;6.10;1.60;;;;;;;;;;5057350;28;20093;-75
2022/05/27 14:19:44;;;;;;;5.93;1.30;;;;;;;;;;5068447;28;20028;-76
2022/05/27 14:25:17;;;;;;;8.43;1.45;;;;;;;;;;5067489;28;20059;-75
2022/05/27 14:28:04;;;;;;;6.55;1.50;;;;;;;;;;5069056;28;20051;-76
2022/05/27 14:30:33;;;;;;;;;;;;;;;;;;5053001;28;20130;-75
2022/05/27 14:32:59;;;;;;;5.88;1.30;;;;;;;;;;5061529;28;20007;-75
2022/05/27 14:35:26;;;;;;;7.25;1.25;;;;;;;;;;5058300;28;20574;-75
2022/05/27 14:37:55;;;;;;;7.22;1.50;;;;;;;;;;5051962;28;20715;-75
2022/05/27 14:40:25;;;;;;;8.27;1.40;;;;;;;;;;5053027;28;20089;-75
2022/05/27 14:42:51;;;;;;;6.78;1.33;;;;;;;;;;5042414;28;20427;-75
2022/05/27 14:45:32;;;;;;;7.82;1.60;;;;;;;;;;5074449;28;20026;-75
2022/05/27 14:47:58;;;;;;;8.88;1.38;;;;;;;;;;5055871;28;20501;-75
2022/05/27 14:50:32;;;;;;;7.40;1.77;;;;;;;;;;5061878;28;20552;-74
2022/05/27 14:53:04;;;;;;;9.52;1.80;;;;;;;;;;5068305;28;20104;-76
2022/05/27 14:55:36;;;;;;;5.32;1.30;;;;;;;;;;5057546;28;20032;-75
2022/05/27 14:58:04;;;;;;;5.05;1.35;;;;;;;;;;5054872;28;20035;-75
2022/05/27 15:00:33;;;;;;;7.25;1.70;;;;;;;;;;5076577;28;20035;-74
2022/05/27 15:03:00;;;;;;;12.27;2.10;;;;;;;;;;5075663;28;20039;-75
2022/05/27 15:05:29;;;;;;;10.75;1.73;;;;;;;;;;5052169;28;20505;-75
2022/05/27 15:08:03;;;;;;;5.05;1.30;;;;;;;;;;5053153;28;20036;-73
2022/05/27 15:10:35;;;;;;;6.85;1.50;;;;;;;;;;5053798;28;20077;-74
2022/05/27 15:13:23;;;;;;;7.50;1.40;;;;;;;;;;5068142;28;20182;-74
2022/05/27 15:15:50;;;;;;;6.60;1.70;;;;;;;;;;5073378;28;20052;-74
2022/05/27 15:18:20;;;;;;;8.57;1.38;;;;;;;;;;5051181;28;20032;-73
2022/05/27 15:20:51;;;;;;;8.32;1.33;;;;;;;;;;5072079;28;20608;-73
2022/05/27 15:23:22;;;;;;;8.73;1.60;;;;;;;;;;5068418;28;20046;-74
2022/05/27 15:25:49;;;;;;;7.63;1.55;;;;;;;;;;5057851;28;20067;-73
2022/05/27 15:33:49;;;;;;;6.43;1.40;;;;;;;;;;5070565;28;20054;-73
2022/05/27 15:36:17;;;;;;;8.50;1.95;;;;;;;;;;5062530;28;20494;-74
2022/05/27 15:38:46;;;;;;;6.90;1.50;;;;;;;;;;5053434;28;20078;-74
2022/05/27 15:41:15;;;;;;;8.43;1.70;;;;;;;;;;5074494;28;20568;-71
2022/05/27 15:43:42;;;;;;;5.65;1.50;;;;;;;;;;5058528;28;20109;-71
2022/05/27 15:46:11;;;;;;;6.70;1.50;;;;;;;;;;5050904;28;20549;-71
2022/05/27 15:48:37;;;;;;;8.45;1.50;;;;;;;;;;5060899;28;20474;-71
2022/05/27 15:51:04;;;;;;;7.78;1.70;;;;;;;;;;5051725;28;20028;-71